createdAt,value
2022-10-08T00:01:40.360Z,101094.88
2022-10-08T00:04:12.236Z,101090.44
2022-10-08T00:06:40.264Z,101092.22
2022-10-08T00:09:08.848Z,101091.28
2022-10-08T00:11:41.444Z,101086.22
2022-10-08T00:14:09.962Z,101086.19
2022-10-08T00:16:40.103Z,101083.47
2022-10-08T00:19:12.673Z,101087.03
2022-10-08T00:21:43.064Z,101084.41
2022-10-08T00:24:14.824Z,101071.81
2022-10-08T00:26:44.358Z,101071.88
2022-10-08T00:29:14.735Z,101068.31
2022-10-08T00:31:45.609Z,101080.78
2022-10-08T00:34:17.296Z,101078.31
2022-10-08T00:36:45.591Z,101070.53
2022-10-08T00:39:15.270Z,101063.34
2022-10-08T00:41:44.896Z,101071.44
2022-10-08T00:44:53.608Z,101061.81
2022-10-08T00:47:37.812Z,101058.09
2022-10-08T00:50:13.174Z,101062.47
2022-10-08T00:52:44.876Z,101056.28
2022-10-08T00:55:15.536Z,101058.13
2022-10-08T00:57:44.831Z,101050.97
2022-10-08T01:00:16.589Z,101052.75
2022-10-08T01:02:44.871Z,101060.63
2022-10-08T01:05:17.637Z,101061.41
2022-10-08T01:07:52.709Z,101059.59
2022-10-08T01:10:33.384Z,101051.50
2022-10-08T01:13:18.313Z,101045.09
2022-10-08T01:15:54.399Z,101048.72
2022-10-08T01:18:32.819Z,101044.50
2022-10-08T01:21:10.100Z,101037.56
2022-10-08T01:24:11.367Z,101042.91
2022-10-08T01:26:54.054Z,101032.44
2022-10-08T01:29:29.476Z,101029.56
2022-10-08T01:32:04.159Z,101029.66
2022-10-08T01:34:37.747Z,101032.09
2022-10-08T01:37:11.135Z,101034.84
2022-10-08T01:39:42.213Z,101030.47
2022-10-08T01:42:12.331Z,101037.41
2022-10-08T01:44:46.415Z,101034.94
2022-10-08T01:47:21.262Z,101039.41
2022-10-08T01:49:53.625Z,101035.78
2022-10-08T01:52:25.676Z,101040.19
2022-10-08T01:54:59.927Z,101034.13
2022-10-08T01:57:31.524Z,101043.00
2022-10-08T02:00:06.351Z,101026.25
2022-10-08T02:02:40.915Z,101033.28
2022-10-08T02:05:09.398Z,101029.75
2022-10-08T02:07:39.284Z,101024.47
2022-10-08T02:10:10.128Z,101035.22
2022-10-08T02:12:40.176Z,101033.50
2022-10-08T02:15:16.033Z,101029.84
2022-10-08T02:17:56.268Z,101021.00
2022-10-08T02:20:31.303Z,101032.44
2022-10-08T02:23:05.384Z,101024.63
2022-10-08T02:25:38.511Z,101027.19
2022-10-08T02:28:12.969Z,101031.72
2022-10-08T02:30:49.816Z,101030.78
2022-10-08T02:33:25.845Z,101022.22
2022-10-08T02:35:58.116Z,101019.47
2022-10-08T02:38:33.092Z,101018.56
2022-10-08T02:41:04.711Z,101010.63
2022-10-08T02:43:36.714Z,101014.00
2022-10-08T02:46:11.460Z,101006.13
2022-10-08T02:48:42.502Z,101008.78
2022-10-08T02:51:15.660Z,100999.81
2022-10-08T02:53:45.906Z,100998.06
2022-10-08T02:56:19.955Z,100998.94
2022-10-08T02:58:48.884Z,101003.28
2022-10-08T03:01:26.545Z,100997.84
2022-10-08T03:04:00.044Z,100997.84
2022-10-08T03:06:29.975Z,100997.03
2022-10-08T03:09:00.702Z,100999.63
2022-10-08T03:11:30.534Z,101001.47
2022-10-08T03:14:01.042Z,101001.41
2022-10-08T03:16:38.218Z,100994.41
2022-10-08T03:19:08.481Z,100991.75
2022-10-08T03:21:39.423Z,100990.03
2022-10-08T03:24:07.803Z,100995.31
2022-10-08T03:26:35.792Z,100992.66
2022-10-08T03:29:04.539Z,100991.75
2022-10-08T03:31:33.993Z,100990.66
2022-10-08T03:34:01.973Z,100993.06
2022-10-08T03:36:30.296Z,100989.28
2022-10-08T03:38:58.700Z,100990.91
2022-10-08T03:41:26.718Z,101003.97
2022-10-08T03:43:54.654Z,100997.53
2022-10-08T03:46:22.633Z,100999.09
2022-10-08T03:48:52.057Z,101001.53
2022-10-08T03:51:21.066Z,101004.00
2022-10-08T03:53:49.248Z,101003.13
2022-10-08T03:56:19.295Z,100997.09
2022-10-08T03:58:47.884Z,100989.97
2022-10-08T04:01:17.849Z,100988.25
2022-10-08T04:03:46.670Z,100993.63
2022-10-08T04:06:16.447Z,100991.97
2022-10-08T04:08:44.549Z,100994.63
2022-10-08T04:11:14.795Z,100995.38
2022-10-08T04:13:43.761Z,101000.41
2022-10-08T04:16:13.546Z,101002.03
2022-10-08T04:18:41.927Z,101003.41
2022-10-08T04:21:12.252Z,101000.81
2022-10-08T04:23:42.704Z,101002.50
2022-10-08T04:26:13.301Z,101005.09
2022-10-08T04:28:44.265Z,101004.16
2022-10-08T04:31:14.321Z,101000.44
2022-10-08T04:33:42.331Z,101000.34
2022-10-08T04:36:11.945Z,100995.34
2022-10-08T04:38:42.776Z,100997.47
2022-10-08T04:41:13.410Z,101002.00
2022-10-08T04:43:42.934Z,100993.91
2022-10-08T04:46:13.213Z,101000.91
2022-10-08T04:48:41.658Z,100993.91
2022-10-08T04:51:10.923Z,100989.53
2022-10-08T04:53:39.906Z,100993.94
2022-10-08T04:56:14.614Z,100995.03
2022-10-08T04:58:42.898Z,100993.28
2022-10-08T05:01:13.358Z,100997.72
2022-10-08T05:03:43.929Z,101013.50
2022-10-08T05:06:12.666Z,101011.63
2022-10-08T05:08:40.636Z,101019.25
2022-10-08T05:11:08.988Z,101010.16
2022-10-08T05:13:38.926Z,101018.91
2022-10-08T05:16:08.392Z,101022.53
2022-10-08T05:18:37.508Z,101022.69
2022-10-08T05:21:06.804Z,101034.38
2022-10-08T05:23:35.662Z,101042.38
2022-10-08T05:26:11.604Z,101037.09
2022-10-08T05:28:41.012Z,101036.13
2022-10-08T05:31:09.152Z,101035.03
2022-10-08T05:33:43.768Z,101040.19
2022-10-08T05:36:17.217Z,101041.09
2022-10-08T05:38:45.257Z,101045.47
2022-10-08T05:41:15.394Z,101048.00
2022-10-08T05:43:45.701Z,101051.41
2022-10-08T05:46:13.996Z,101054.88
2022-10-08T05:48:42.852Z,101056.50
2022-10-08T05:51:13.271Z,101059.03
2022-10-08T05:53:42.838Z,101059.78
2022-10-08T05:56:13.534Z,101067.88
2022-10-08T05:58:42.667Z,101061.38
2022-10-08T06:01:15.550Z,101069.31
2022-10-08T06:03:44.368Z,101073.84
2022-10-08T06:06:13.170Z,101062.44
2022-10-08T06:08:43.981Z,101063.25
2022-10-08T06:11:12.038Z,101058.91
2022-10-08T06:13:40.020Z,101064.22
2022-10-08T06:16:09.835Z,101078.38
2022-10-08T06:18:41.206Z,101090.06
2022-10-08T06:21:11.822Z,101090.56
2022-10-08T06:23:40.802Z,101080.66
2022-10-08T06:26:10.830Z,101087.53
2022-10-08T06:28:40.297Z,101083.63
2022-10-08T06:31:09.516Z,101088.75
2022-10-08T06:33:39.059Z,101100.41
2022-10-08T06:36:09.049Z,101110.00
2022-10-08T06:38:36.917Z,101115.25
2022-10-08T06:41:04.950Z,101116.00
2022-10-08T06:43:33.071Z,101101.63
2022-10-08T06:46:05.440Z,101105.22
2022-10-08T06:48:33.619Z,101111.53
2022-10-08T06:51:06.132Z,101113.44
2022-10-08T06:53:36.063Z,101116.13
2022-10-08T06:56:06.383Z,101126.13
2022-10-08T06:58:36.551Z,101131.38
2022-10-08T07:01:06.812Z,101132.88
2022-10-08T07:03:36.023Z,101136.31
2022-10-08T07:06:07.250Z,101130.75
2022-10-08T07:08:36.076Z,101132.44
2022-10-08T07:11:05.989Z,101136.72
2022-10-08T07:13:34.109Z,101147.03
2022-10-08T07:16:03.654Z,101147.75
2022-10-08T07:18:32.555Z,101151.09
2022-10-08T07:21:00.980Z,101145.50
2022-10-08T07:23:30.438Z,101162.41
2022-10-08T07:26:00.333Z,101164.94
2022-10-08T07:28:30.762Z,101167.13
2022-10-08T07:30:58.771Z,101175.66
2022-10-08T07:33:26.692Z,101177.63
2022-10-08T07:35:54.975Z,101177.63
2022-10-08T07:38:23.061Z,101190.97
2022-10-08T07:40:54.961Z,101190.03
2022-10-08T07:43:24.248Z,101188.56
2022-10-08T07:45:52.294Z,101190.44
2022-10-08T07:48:20.755Z,101201.28
2022-10-08T07:50:48.701Z,101200.38
2022-10-08T07:53:17.135Z,101201.38
2022-10-08T07:55:48.225Z,101206.88
2022-10-08T07:58:17.551Z,101204.22
2022-10-08T08:00:45.538Z,101201.78
2022-10-08T08:03:15.518Z,101215.09
2022-10-08T08:05:43.647Z,101219.44
2022-10-08T08:08:12.373Z,101224.94
2022-10-08T08:10:40.392Z,101227.88
2022-10-08T08:13:08.366Z,101243.34
2022-10-08T08:15:37.753Z,101241.41
2022-10-08T08:18:06.072Z,101253.00
2022-10-08T08:20:34.006Z,101247.72
2022-10-08T08:23:02.455Z,101254.03
2022-10-08T08:25:32.179Z,101251.00
2022-10-08T08:28:00.204Z,101251.72
2022-10-08T08:30:28.274Z,101256.91
2022-10-08T08:33:00.821Z,101262.50
2022-10-08T08:35:28.954Z,101268.41
2022-10-08T08:37:56.927Z,101268.94
2022-10-08T08:40:24.932Z,101270.53
2022-10-08T08:42:56.452Z,101277.47
2022-10-08T08:45:45.757Z,101266.25
2022-10-08T08:48:20.457Z,101269.00
2022-10-08T08:50:51.088Z,101272.38
2022-10-08T08:53:19.979Z,101270.91
2022-10-08T08:55:50.311Z,101278.03
2022-10-08T08:58:28.431Z,101277.91
2022-10-08T09:01:01.601Z,101277.56
2022-10-08T09:03:35.941Z,101283.31
2022-10-08T09:06:09.862Z,101286.00
2022-10-08T09:08:43.431Z,101295.69
2022-10-08T09:11:14.706Z,101299.19
2022-10-08T09:13:48.868Z,101297.47
2022-10-08T09:16:17.854Z,101307.66
2022-10-08T09:18:55.508Z,101306.53
2022-10-08T09:21:26.407Z,101308.00
2022-10-08T09:23:54.434Z,101302.41
2022-10-08T09:26:24.304Z,101303.44
2022-10-08T09:28:54.746Z,101298.06
2022-10-08T09:31:27.076Z,101302.56
2022-10-08T09:34:05.326Z,101302.34
2022-10-08T09:36:39.053Z,101303.66
2022-10-08T09:39:16.559Z,101295.81
2022-10-08T09:41:45.792Z,101303.47
2022-10-08T09:44:21.675Z,101294.09
2022-10-08T09:47:04.854Z,101311.94
2022-10-08T09:49:35.776Z,101300.78
2022-10-08T09:52:16.890Z,101300.44
2022-10-08T09:54:49.220Z,101318.81
2022-10-08T09:57:19.467Z,101320.84
2022-10-08T09:59:54.388Z,101329.03
2022-10-08T10:02:32.064Z,101323.88
2022-10-08T10:05:03.830Z,101323.44
2022-10-08T10:07:40.593Z,101324.16
2022-10-08T10:10:19.190Z,101324.75
2022-10-08T10:12:52.263Z,101335.28
2022-10-08T10:15:23.766Z,101328.91
2022-10-08T10:17:56.567Z,101326.50
2022-10-08T10:20:38.756Z,101322.50
2022-10-08T10:23:14.664Z,101329.41
2022-10-08T10:25:47.660Z,101323.75
2022-10-08T10:28:21.272Z,101323.63
2022-10-08T10:30:54.008Z,101319.91
2022-10-08T10:33:26.723Z,101319.50
2022-10-08T10:36:00.539Z,101313.69
2022-10-08T10:38:31.172Z,101325.50
2022-10-08T10:41:10.953Z,101318.81
2022-10-08T10:43:46.984Z,101327.56
2022-10-08T10:46:23.642Z,101314.78
2022-10-08T10:48:52.045Z,101321.13
2022-10-08T10:51:39.586Z,101309.03
2022-10-08T10:54:20.726Z,101316.25
2022-10-08T10:56:55.021Z,101313.44
2022-10-08T10:59:37.754Z,101307.19
2022-10-08T11:02:16.232Z,101304.50
2022-10-08T11:04:52.980Z,101299.38
2022-10-08T11:07:45.880Z,101303.66
2022-10-08T11:10:26.195Z,101300.38
2022-10-08T11:13:00.878Z,101307.28
2022-10-08T11:15:37.453Z,101311.97
2022-10-08T11:18:18.962Z,101316.75
2022-10-08T11:21:04.091Z,101313.47
2022-10-08T11:23:54.603Z,101317.56
2022-10-08T11:26:31.861Z,101314.91
2022-10-08T11:29:09.806Z,101312.09
2022-10-08T11:31:42.689Z,101315.84
2022-10-08T11:34:25.708Z,101324.50
2022-10-08T11:37:04.805Z,101324.00
2022-10-08T11:39:43.097Z,101342.16
2022-10-08T11:42:18.397Z,101363.66
2022-10-08T11:44:46.638Z,101368.28
2022-10-08T11:47:52.045Z,101364.06
2022-10-08T11:50:30.951Z,101359.78
2022-10-08T11:53:18.445Z,101371.41
2022-10-08T11:55:55.048Z,101375.88
2022-10-08T11:58:28.134Z,101388.69
2022-10-08T12:01:03.570Z,101384.34
2022-10-08T12:03:34.739Z,101385.84
2022-10-08T12:06:17.024Z,101386.59
2022-10-08T12:08:58.307Z,101381.56
2022-10-08T12:11:51.072Z,101379.13
2022-10-08T12:14:42.481Z,101367.22
2022-10-08T12:17:12.962Z,101375.59
2022-10-08T12:20:03.138Z,101376.63
2022-10-08T12:23:00.250Z,101378.22
2022-10-08T12:25:40.265Z,101381.88
2022-10-08T12:28:46.753Z,101382.97
2022-10-08T12:31:24.146Z,101368.88
2022-10-08T12:34:01.006Z,101369.69
2022-10-08T12:36:49.546Z,101373.31
2022-10-08T12:39:27.909Z,101372.88
2022-10-08T12:42:05.138Z,101372.63
2022-10-08T12:44:45.154Z,101370.78
2022-10-08T12:47:26.608Z,101367.13
2022-10-08T12:49:59.674Z,101369.63
2022-10-08T12:52:28.187Z,101360.75
2022-10-08T12:54:58.607Z,101370.38
2022-10-08T12:57:30.489Z,101363.13
2022-10-08T13:00:01.848Z,101372.31
2022-10-08T13:02:37.829Z,101365.97
2022-10-08T13:05:07.106Z,101367.66
2022-10-08T13:07:36.444Z,101369.91
2022-10-08T13:10:19.118Z,101376.97
2022-10-08T13:13:00.199Z,101366.13
2022-10-08T13:15:31.360Z,101367.06
2022-10-08T13:17:59.345Z,101357.75
2022-10-08T13:20:27.688Z,101358.22
2022-10-08T13:22:55.812Z,101362.13
2022-10-08T13:25:35.480Z,101361.44
2022-10-08T13:28:15.576Z,101359.97
2022-10-08T13:30:46.933Z,101363.50
2022-10-08T13:33:20.105Z,101358.16
2022-10-08T13:35:53.862Z,101368.16
2022-10-08T13:38:26.116Z,101358.16
2022-10-08T13:40:58.669Z,101370.72
2022-10-08T13:43:27.383Z,101402.25
2022-10-08T13:45:57.029Z,101410.31
2022-10-08T13:48:25.033Z,101429.50
2022-10-08T13:50:53.618Z,101432.22
2022-10-08T13:53:26.271Z,101422.63
2022-10-08T13:55:54.403Z,101424.66
2022-10-08T13:58:22.582Z,101424.34
2022-10-08T14:00:50.978Z,101429.19
2022-10-08T14:03:20.566Z,101431.66
2022-10-08T14:05:49.457Z,101418.56
2022-10-08T14:08:20.808Z,101428.03
2022-10-08T14:10:49.466Z,101441.41
2022-10-08T14:13:17.722Z,101443.00
2022-10-08T14:15:47.404Z,101439.22
2022-10-08T14:18:15.478Z,101446.38
2022-10-08T14:20:45.002Z,101446.19
2022-10-08T14:23:14.268Z,101444.47
2022-10-08T14:25:42.302Z,101454.75
2022-10-08T14:28:10.328Z,101454.03
2022-10-08T14:30:38.573Z,101457.19
2022-10-08T14:33:11.033Z,101448.56
2022-10-08T14:35:40.035Z,101444.09
2022-10-08T14:38:09.781Z,101448.34
2022-10-08T14:40:39.022Z,101456.59
2022-10-08T14:43:07.127Z,101456.94
2022-10-08T14:45:35.125Z,101457.13
2022-10-08T14:48:03.453Z,101468.41
2022-10-08T14:50:31.837Z,101471.81
2022-10-08T14:52:59.822Z,101462.72
2022-10-08T14:55:29.314Z,101466.50
2022-10-08T14:57:57.435Z,101468.13
2022-10-08T15:00:25.427Z,101469.63
2022-10-08T15:02:53.727Z,101468.69
2022-10-08T15:05:21.824Z,101471.16
2022-10-08T15:07:50.403Z,101471.31
2022-10-08T15:10:18.867Z,101478.00
2022-10-08T15:12:48.393Z,101481.78
2022-10-08T15:15:18.628Z,101481.75
2022-10-08T15:17:48.511Z,101491.38
2022-10-08T15:20:17.092Z,101498.56
2022-10-08T15:22:45.201Z,101507.56
2022-10-08T15:25:13.473Z,101498.34
2022-10-08T15:27:41.525Z,101492.28
2022-10-08T15:30:12.872Z,101502.00
2022-10-08T15:32:40.893Z,101501.72
2022-10-08T15:35:11.261Z,101509.31
2022-10-08T15:37:39.251Z,101512.88
2022-10-08T15:40:08.189Z,101512.38
2022-10-08T15:42:36.336Z,101519.00
2022-10-08T15:45:04.431Z,101516.84
2022-10-08T15:47:33.802Z,101529.19
2022-10-08T15:50:01.962Z,101533.41
2022-10-08T15:52:30.025Z,101539.47
2022-10-08T15:54:57.989Z,101537.91
2022-10-08T15:57:25.915Z,101545.44
2022-10-08T15:59:55.657Z,101544.06
2022-10-08T16:02:23.725Z,101558.19
2022-10-08T16:04:53.894Z,101560.59
2022-10-08T16:07:21.950Z,101556.28
2022-10-08T16:09:50.510Z,101551.28
2022-10-08T16:12:18.515Z,101559.28
2022-10-08T16:14:47.242Z,101566.81
2022-10-08T16:17:15.679Z,101557.94
2022-10-08T16:19:43.719Z,101571.28
2022-10-08T16:22:13.803Z,101572.13
2022-10-08T16:24:41.778Z,101580.16
2022-10-08T16:27:10.057Z,101571.94
2022-10-08T16:29:38.045Z,101588.25
2022-10-08T16:32:06.093Z,101591.31
2022-10-08T16:34:34.407Z,101589.75
2022-10-08T16:37:02.449Z,101599.66
2022-10-08T16:39:31.947Z,101597.28
2022-10-08T16:41:59.838Z,101607.72
2022-10-08T16:44:27.867Z,101607.72
2022-10-08T16:46:55.906Z,101606.97
2022-10-08T16:49:26.709Z,101613.28
2022-10-08T16:51:57.586Z,101621.38
2022-10-08T16:54:25.720Z,101625.00
2022-10-08T16:56:56.709Z,101630.50
2022-10-08T16:59:27.280Z,101631.72
2022-10-08T17:01:57.658Z,101636.06
2022-10-08T17:04:28.033Z,101637.16
2022-10-08T17:06:56.510Z,101646.13
2022-10-08T17:09:24.581Z,101648.88
2022-10-08T17:11:53.052Z,101648.94
2022-10-08T17:14:22.672Z,101651.63
2022-10-08T17:16:52.312Z,101664.94
2022-10-08T17:19:20.827Z,101666.69
2022-10-08T17:21:49.046Z,101664.91
2022-10-08T17:24:17.555Z,101679.22
2022-10-08T17:26:45.577Z,101681.22
2022-10-08T17:29:14.077Z,101689.25
2022-10-08T17:31:43.843Z,101694.56
2022-10-08T17:34:12.647Z,101703.50
2022-10-08T17:36:44.145Z,101703.47
2022-10-08T17:39:14.263Z,101702.63
2022-10-08T17:41:43.953Z,101704.41
2022-10-08T17:44:12.349Z,101715.84
2022-10-08T17:46:42.779Z,101710.63
2022-10-08T17:49:12.706Z,101721.31
2022-10-08T17:51:40.846Z,101719.56
2022-10-08T17:54:13.112Z,101720.53
2022-10-08T17:56:41.107Z,101726.75
2022-10-08T17:59:09.258Z,101732.97
2022-10-08T18:01:41.466Z,101740.09
2022-10-08T18:04:16.694Z,101741.91
2022-10-08T18:06:46.706Z,101750.81
2022-10-08T18:09:18.861Z,101752.56
2022-10-08T18:11:48.884Z,101748.09
2022-10-08T18:14:17.545Z,101751.53
2022-10-08T18:16:48.481Z,101757.72
2022-10-08T18:19:19.250Z,101760.34
2022-10-08T18:21:47.676Z,101763.94
2022-10-08T18:24:16.564Z,101777.25
2022-10-08T18:26:44.815Z,101777.31
2022-10-08T18:29:14.746Z,101779.06
2022-10-08T18:31:44.646Z,101782.47
2022-10-08T18:34:15.575Z,101776.34
2022-10-08T18:36:45.060Z,101793.22
2022-10-08T18:39:14.520Z,101784.41
2022-10-08T18:41:44.322Z,101784.41
2022-10-08T18:44:16.096Z,101794.22
2022-10-08T18:46:46.824Z,101791.63
2022-10-08T18:49:16.686Z,101796.97
2022-10-08T18:51:46.546Z,101797.06
2022-10-08T18:54:14.585Z,101800.66
2022-10-08T18:56:43.992Z,101813.06
2022-10-08T18:59:14.803Z,101809.50
2022-10-08T19:01:45.202Z,101809.56
2022-10-08T19:04:15.404Z,101812.13
2022-10-08T19:06:48.829Z,101814.78
2022-10-08T19:09:17.142Z,101815.81
2022-10-08T19:11:47.189Z,101827.38
2022-10-08T19:14:17.610Z,101815.72
2022-10-08T19:16:46.428Z,101818.25
2022-10-08T19:19:16.705Z,101825.38
2022-10-08T19:21:46.813Z,101828.97
2022-10-08T19:24:17.149Z,101823.59
2022-10-08T19:26:46.132Z,101828.00
2022-10-08T19:29:16.560Z,101830.69
2022-10-08T19:31:47.613Z,101836.84
2022-10-08T19:34:17.350Z,101843.31
2022-10-08T19:36:46.779Z,101854.91
2022-10-08T19:39:17.352Z,101848.69
2022-10-08T19:41:45.340Z,101854.06
2022-10-08T19:44:13.406Z,101853.16
2022-10-08T19:46:41.444Z,101852.25
2022-10-08T19:49:09.985Z,101861.19
2022-10-08T19:51:38.511Z,101862.06
2022-10-08T19:54:08.170Z,101871.72
2022-10-08T19:56:36.536Z,101867.44
2022-10-08T19:59:04.978Z,101873.66
2022-10-08T20:01:35.591Z,101871.03
2022-10-08T20:04:05.693Z,101872.00
2022-10-08T20:06:35.698Z,101873.69
2022-10-08T20:09:06.077Z,101874.66
2022-10-08T20:11:35.809Z,101881.72
2022-10-08T20:14:03.741Z,101886.09
2022-10-08T20:16:34.630Z,101885.25
2022-10-08T20:19:05.358Z,101898.47
2022-10-08T20:21:35.464Z,101885.31
2022-10-08T20:24:04.053Z,101892.44
2022-10-08T20:26:33.062Z,101902.16
2022-10-08T20:29:04.987Z,101896.03
2022-10-08T20:31:35.144Z,101901.28
2022-10-08T20:34:04.777Z,101903.13
2022-10-08T20:36:33.866Z,101900.47
2022-10-08T20:39:01.989Z,101901.38
2022-10-08T20:41:31.269Z,101907.53
2022-10-08T20:44:03.094Z,101907.56
2022-10-08T20:46:32.123Z,101915.63
2022-10-08T20:49:00.452Z,101915.59
2022-10-08T20:51:29.609Z,101919.19
2022-10-08T20:53:59.431Z,101918.31
2022-10-08T20:56:28.867Z,101912.13
2022-10-08T20:58:57.494Z,101919.19
2022-10-08T21:01:28.386Z,101916.47
2022-10-08T21:03:56.750Z,101922.63
2022-10-08T21:06:26.866Z,101920.00
2022-10-08T21:08:56.836Z,101928.88
2022-10-08T21:11:27.270Z,101921.78
2022-10-08T21:13:55.553Z,101928.06
2022-10-08T21:16:26.914Z,101924.53
2022-10-08T21:18:57.281Z,101929.91
2022-10-08T21:21:26.237Z,101934.31
2022-10-08T21:23:54.342Z,101931.69
2022-10-08T21:26:23.999Z,101932.56
2022-10-08T21:28:54.053Z,101922.84
2022-10-08T21:31:23.113Z,101934.41
2022-10-08T21:33:53.969Z,101937.06
2022-10-08T21:36:23.993Z,101932.66
2022-10-08T21:38:52.422Z,101937.06
2022-10-08T21:41:22.982Z,101936.22
2022-10-08T21:43:52.399Z,101937.09
2022-10-08T21:46:22.109Z,101943.31
2022-10-08T21:48:56.382Z,101946.81
2022-10-08T21:51:25.046Z,101943.28
2022-10-08T21:53:56.473Z,101948.59
2022-10-08T21:56:27.124Z,101953.00
2022-10-08T21:58:56.861Z,101953.91
2022-10-08T22:01:27.651Z,101954.81
2022-10-08T22:03:58.717Z,101947.72
2022-10-08T22:06:27.262Z,101953.06
2022-10-08T22:08:55.284Z,101955.72
2022-10-08T22:11:24.372Z,101956.59
2022-10-08T22:13:53.231Z,101956.59
2022-10-08T22:16:23.001Z,101956.59
2022-10-08T22:18:51.150Z,101955.72
2022-10-08T22:21:22.926Z,101952.19
2022-10-08T22:23:52.248Z,101955.72
2022-10-08T22:26:23.772Z,101965.44
2022-10-08T22:28:52.324Z,101964.56
2022-10-08T22:31:21.071Z,101963.69
2022-10-08T22:33:49.985Z,101961.94
2022-10-08T22:36:21.632Z,101968.13
2022-10-08T22:38:50.074Z,101961.94
2022-10-08T22:41:21.329Z,101964.56
2022-10-08T22:43:49.744Z,101973.41
2022-10-08T22:46:21.109Z,101965.44
2022-10-08T22:48:49.171Z,101970.75
2022-10-08T22:51:18.979Z,101975.16
2022-10-08T22:53:49.435Z,101977.84
2022-10-08T22:56:20.118Z,101977.81
2022-10-08T22:58:49.157Z,101975.16
2022-10-08T23:01:18.814Z,101984.91
2022-10-08T23:03:47.099Z,101980.47
2022-10-08T23:06:17.590Z,101983.13
2022-10-08T23:08:47.799Z,101982.25
2022-10-08T23:11:17.923Z,101988.44
2022-10-08T23:13:46.548Z,101985.81
2022-10-08T23:16:16.410Z,101991.09
2022-10-08T23:18:46.607Z,101988.44
2022-10-08T23:21:16.663Z,101989.31
2022-10-08T23:23:45.932Z,101996.38
2022-10-08T23:26:15.151Z,102001.69
2022-10-08T23:28:45.670Z,101999.03
2022-10-08T23:31:16.659Z,101997.25
2022-10-08T23:33:46.311Z,102005.19
2022-10-08T23:36:17.049Z,102000.81
2022-10-08T23:38:45.194Z,102001.66
2022-10-08T23:41:14.100Z,102006.97
2022-10-08T23:43:46.082Z,102005.16
2022-10-08T23:46:16.071Z,102006.94
2022-10-08T23:48:44.609Z,102008.69
2022-10-08T23:51:14.346Z,102005.16
2022-10-08T23:53:42.632Z,102006.94
2022-10-08T23:56:13.907Z,102006.06
2022-10-08T23:58:42.497Z,102014.00
